sensor_id;sensor_type;location;lat;lon;timestamp;P1;durP1;ratioP1;P2;durP2;ratioP2
9264;SDS011;4669;49.594;10.958;2023-07-31T04:29:13;7.05;;;1.98;;
9264;SDS011;4669;49.594;10.958;2023-07-31T04:34:16;3.28;;;1.80;;
9264;SDS011;4669;49.594;10.958;2023-07-31T04:39:17;5.10;;;1.77;;
9264;SDS011;4669;49.594;10.958;2023-07-31T04:44:21;4.43;;;1.95;;
9264;SDS011;4669;49.594;10.958;2023-07-31T04:49:22;3.97;;;1.80;;
9264;SDS011;4669;49.594;10.958;2023-07-31T04:54:24;4.88;;;2.13;;
9264;SDS011;4669;49.594;10.958;2023-07-31T04:59:27;4.35;;;1.80;;
9264;SDS011;4669;49.594;10.958;2023-07-31T05:04:29;4.63;;;1.85;;
9264;SDS011;4669;49.594;10.958;2023-07-31T05:09:31;3.80;;;1.95;;
9264;SDS011;4669;49.594;10.958;2023-07-31T05:14:34;3.45;;;1.85;;
9264;SDS011;4669;49.594;10.958;2023-07-31T05:19:36;3.35;;;1.80;;
9264;SDS011;4669;49.594;10.958;2023-07-31T05:24:38;5.75;;;2.33;;
9264;SDS011;4669;49.594;10.958;2023-07-31T05:29:41;2.40;;;1.70;;
9264;SDS011;4669;49.594;10.958;2023-07-31T05:34:43;3.58;;;1.80;;
9264;SDS011;4669;49.594;10.958;2023-07-31T05:39:45;7.90;;;2.05;;
9264;SDS011;4669;49.594;10.958;2023-07-31T05:44:48;6.03;;;2.40;;
9264;SDS011;4669;49.594;10.958;2023-07-31T05:49:50;6.50;;;2.00;;
9264;SDS011;4669;49.594;10.958;2023-07-31T05:54:53;5.85;;;2.13;;
9264;SDS011;4669;49.594;10.958;2023-07-31T05:59:56;3.65;;;1.90;;
9264;SDS011;4669;49.594;10.958;2023-07-31T06:04:58;3.33;;;1.80;;
9264;SDS011;4669;49.594;10.958;2023-07-31T06:10:01;4.93;;;1.95;;
9264;SDS011;4669;49.594;10.958;2023-07-31T06:15:06;4.38;;;2.05;;
9264;SDS011;4669;49.594;10.958;2023-07-31T06:20:08;6.45;;;2.03;;
9264;SDS011;4669;49.594;10.958;2023-07-31T06:25:11;4.53;;;2.25;;
9264;SDS011;4669;49.594;10.958;2023-07-31T06:30:15;4.10;;;2.03;;
9264;SDS011;4669;49.594;10.958;2023-07-31T06:35:17;5.28;;;1.92;;
9264;SDS011;4669;49.594;10.958;2023-07-31T06:40:18;3.90;;;2.10;;
9264;SDS011;4669;49.594;10.958;2023-07-31T06:45:22;4.07;;;2.00;;
9264;SDS011;4669;49.594;10.958;2023-07-31T06:50:23;6.05;;;2.20;;
9264;SDS011;4669;49.594;10.958;2023-07-31T06:55:25;4.35;;;2.40;;
9264;SDS011;4669;49.594;10.958;2023-07-31T07:00:29;6.70;;;2.40;;
9264;SDS011;4669;49.594;10.958;2023-07-31T07:05:32;5.50;;;2.13;;
9264;SDS011;4669;49.594;10.958;2023-07-31T07:10:34;6.45;;;2.65;;
9264;SDS011;4669;49.594;10.958;2023-07-31T07:15:37;5.25;;;2.50;;
9264;SDS011;4669;49.594;10.958;2023-07-31T07:20:39;7.28;;;2.47;;
9264;SDS011;4669;49.594;10.958;2023-07-31T07:25:41;8.32;;;2.10;;
9264;SDS011;4669;49.594;10.958;2023-07-31T07:30:44;4.03;;;2.85;;
9264;SDS011;4669;49.594;10.958;2023-07-31T07:35:46;5.05;;;2.40;;
9264;SDS011;4669;49.594;10.958;2023-07-31T07:40:48;6.15;;;2.05;;
9264;SDS011;4669;49.594;10.958;2023-07-31T07:45:55;5.93;;;2.63;;
9264;SDS011;4669;49.594;10.958;2023-07-31T07:50:57;4.13;;;2.17;;
9264;SDS011;4669;49.594;10.958;2023-07-31T07:55:58;5.25;;;2.13;;
9264;SDS011;4669;49.594;10.958;2023-07-31T08:01:02;9.02;;;3.10;;
9264;SDS011;4669;49.594;10.958;2023-07-31T08:06:04;7.47;;;2.33;;
9264;SDS011;4669;49.594;10.958;2023-07-31T08:11:05;5.60;;;2.55;;
9264;SDS011;4669;49.594;10.958;2023-07-31T08:16:09;4.55;;;2.10;;
9264;SDS011;4669;49.594;10.958;2023-07-31T08:21:10;5.72;;;2.38;;
9264;SDS011;4669;49.594;10.958;2023-07-31T08:26:14;5.82;;;2.33;;
9264;SDS011;4669;49.594;10.958;2023-07-31T08:31:18;7.15;;;2.08;;
9264;SDS011;4669;49.594;10.958;2023-07-31T08:36:20;4.45;;;2.03;;
9264;SDS011;4669;49.594;10.958;2023-07-31T08:41:22;5.20;;;2.67;;
9264;SDS011;4669;49.594;10.958;2023-07-31T08:46:25;4.85;;;2.17;;
9264;SDS011;4669;49.594;10.958;2023-07-31T08:51:28;6.05;;;2.67;;
9264;SDS011;4669;49.594;10.958;2023-07-31T08:56:31;7.03;;;2.40;;
9264;SDS011;4669;49.594;10.958;2023-07-31T09:01:35;6.28;;;2.53;;
9264;SDS011;4669;49.594;10.958;2023-07-31T09:06:44;5.28;;;2.75;;
9264;SDS011;4669;49.594;10.958;2023-07-31T09:11:49;4.65;;;1.90;;
9264;SDS011;4669;49.594;10.958;2023-07-31T09:16:53;5.82;;;2.28;;
9264;SDS011;4669;49.594;10.958;2023-07-31T09:21:58;5.22;;;2.65;;
9264;SDS011;4669;49.594;10.958;2023-07-31T09:27:00;3.83;;;2.10;;
9264;SDS011;4669;49.594;10.958;2023-07-31T09:32:04;5.10;;;2.45;;
9264;SDS011;4669;49.594;10.958;2023-07-31T09:37:17;5.45;;;2.50;;
9264;SDS011;4669;49.594;10.958;2023-07-31T09:42:24;9.73;;;3.03;;
9264;SDS011;4669;49.594;10.958;2023-07-31T09:47:28;5.18;;;2.42;;
9264;SDS011;4669;49.594;10.958;2023-07-31T09:52:30;6.00;;;2.63;;
9264;SDS011;4669;49.594;10.958;2023-07-31T09:57:32;5.45;;;2.30;;
9264;SDS011;4669;49.594;10.958;2023-07-31T10:02:36;6.45;;;2.53;;
9264;SDS011;4669;49.594;10.958;2023-07-31T10:07:39;4.55;;;2.65;;
9264;SDS011;4669;49.594;10.958;2023-07-31T10:12:43;6.68;;;2.47;;
9264;SDS011;4669;49.594;10.958;2023-07-31T10:17:48;5.47;;;2.28;;
9264;SDS011;4669;49.594;10.958;2023-07-31T10:22:51;6.50;;;2.42;;
9264;SDS011;4669;49.594;10.958;2023-07-31T10:27:55;7.85;;;2.50;;
9264;SDS011;4669;49.594;10.958;2023-07-31T10:32:59;4.40;;;2.42;;
9264;SDS011;4669;49.594;10.958;2023-07-31T10:38:11;6.07;;;2.28;;
9264;SDS011;4669;49.594;10.958;2023-07-31T10:43:23;6.63;;;2.33;;
9264;SDS011;4669;49.594;10.958;2023-07-31T10:48:28;4.75;;;2.50;;
9264;SDS011;4669;49.594;10.958;2023-07-31T10:53:35;4.90;;;2.28;;
9264;SDS011;4669;49.594;10.958;2023-07-31T10:58:38;11.48;;;3.10;;
9264;SDS011;4669;49.594;10.958;2023-07-31T11:03:42;3.67;;;2.65;;
9264;SDS011;4669;49.594;10.958;2023-07-31T11:08:46;7.18;;;2.25;;
9264;SDS011;4669;49.594;10.958;2023-07-31T11:13:49;4.85;;;2.60;;
9264;SDS011;4669;49.594;10.958;2023-07-31T11:18:53;8.27;;;2.58;;
9264;SDS011;4669;49.594;10.958;2023-07-31T11:23:56;4.72;;;2.90;;
9264;SDS011;4669;49.594;10.958;2023-07-31T11:28:59;5.15;;;2.72;;
9264;SDS011;4669;49.594;10.958;2023-07-31T11:34:05;6.13;;;2.55;;
9264;SDS011;4669;49.594;10.958;2023-07-31T11:39:07;3.72;;;2.58;;
9264;SDS011;4669;49.594;10.958;2023-07-31T11:44:10;4.53;;;2.30;;
9264;SDS011;4669;49.594;10.958;2023-07-31T11:49:13;3.97;;;2.65;;
9264;SDS011;4669;49.594;10.958;2023-07-31T11:54:16;4.25;;;2.30;;
9264;SDS011;4669;49.594;10.958;2023-07-31T11:59:18;6.05;;;2.38;;
9264;SDS011;4669;49.594;10.958;2023-07-31T12:04:22;6.45;;;2.75;;
9264;SDS011;4669;49.594;10.958;2023-07-31T12:09:25;6.28;;;2.47;;
9264;SDS011;4669;49.594;10.958;2023-07-31T12:14:27;4.80;;;2.75;;
9264;SDS011;4669;49.594;10.958;2023-07-31T12:19:31;4.63;;;2.20;;
9264;SDS011;4669;49.594;10.958;2023-07-31T12:24:33;6.13;;;2.40;;
9264;SDS011;4669;49.594;10.958;2023-07-31T12:29:37;5.65;;;2.50;;
9264;SDS011;4669;49.594;10.958;2023-07-31T12:34:43;7.90;;;2.83;;
9264;SDS011;4669;49.594;10.958;2023-07-31T12:39:45;5.85;;;3.22;;
9264;SDS011;4669;49.594;10.958;2023-07-31T12:44:46;4.00;;;2.25;;
9264;SDS011;4669;49.594;10.958;2023-07-31T12:49:50;4.65;;;2.88;;
9264;SDS011;4669;49.594;10.958;2023-07-31T12:54:51;6.70;;;2.83;;
9264;SDS011;4669;49.594;10.958;2023-07-31T12:59:53;4.18;;;2.67;;
9264;SDS011;4669;49.594;10.958;2023-07-31T13:04:56;6.35;;;2.55;;
9264;SDS011;4669;49.594;10.958;2023-07-31T13:09:58;3.80;;;2.50;;
9264;SDS011;4669;49.594;10.958;2023-07-31T13:15:00;4.15;;;2.40;;
9264;SDS011;4669;49.594;10.958;2023-07-31T13:20:04;9.02;;;3.10;;
9264;SDS011;4669;49.594;10.958;2023-07-31T13:25:07;7.60;;;2.83;;
9264;SDS011;4669;49.594;10.958;2023-07-31T13:30:09;3.00;;;2.38;;
9264;SDS011;4669;49.594;10.958;2023-07-31T13:35:12;3.97;;;2.22;;
9264;SDS011;4669;49.594;10.958;2023-07-31T13:40:14;5.75;;;2.85;;
9264;SDS011;4669;49.594;10.958;2023-07-31T13:45:16;4.85;;;2.55;;
9264;SDS011;4669;49.594;10.958;2023-07-31T13:50:25;5.13;;;2.55;;
9264;SDS011;4669;49.594;10.958;2023-07-31T13:55:27;7.72;;;3.05;;
9264;SDS011;4669;49.594;10.958;2023-07-31T14:00:29;4.47;;;2.45;;
9264;SDS011;4669;49.594;10.958;2023-07-31T14:05:32;5.40;;;2.65;;
9264;SDS011;4669;49.594;10.958;2023-07-31T14:10:34;3.38;;;2.25;;
9264;SDS011;4669;49.594;10.958;2023-07-31T14:15:36;5.28;;;2.80;;
9264;SDS011;4669;49.594;10.958;2023-07-31T14:20:39;5.72;;;2.88;;
9264;SDS011;4669;49.594;10.958;2023-07-31T14:25:41;5.32;;;3.42;;
9264;SDS011;4669;49.594;10.958;2023-07-31T14:30:43;5.88;;;2.90;;
9264;SDS011;4669;49.594;10.958;2023-07-31T14:35:46;5.60;;;2.72;;
9264;SDS011;4669;49.594;10.958;2023-07-31T14:40:48;3.78;;;2.63;;
9264;SDS011;4669;49.594;10.958;2023-07-31T14:45:50;5.00;;;3.50;;
9264;SDS011;4669;49.594;10.958;2023-07-31T14:50:54;9.18;;;4.88;;
9264;SDS011;4669;49.594;10.958;2023-07-31T14:55:56;5.82;;;2.58;;
9264;SDS011;4669;49.594;10.958;2023-07-31T15:00:58;6.47;;;2.75;;
9264;SDS011;4669;49.594;10.958;2023-07-31T15:06:01;6.00;;;3.13;;
9264;SDS011;4669;49.594;10.958;2023-07-31T15:11:05;4.90;;;2.90;;
9264;SDS011;4669;49.594;10.958;2023-07-31T15:16:07;5.60;;;2.92;;
9264;SDS011;4669;49.594;10.958;2023-07-31T15:21:10;9.00;;;3.13;;
9264;SDS011;4669;49.594;10.958;2023-07-31T15:26:12;7.28;;;2.92;;
9264;SDS011;4669;49.594;10.958;2023-07-31T15:31:14;3.90;;;2.80;;
9264;SDS011;4669;49.594;10.958;2023-07-31T15:36:17;5.25;;;3.05;;
9264;SDS011;4669;49.594;10.958;2023-07-31T15:41:19;5.38;;;3.35;;
9264;SDS011;4669;49.594;10.958;2023-07-31T15:46:21;8.25;;;3.70;;
9264;SDS011;4669;49.594;10.958;2023-07-31T21:04:47;5.43;;;3.05;;
9264;SDS011;4669;49.594;10.958;2023-07-31T21:09:49;3.80;;;2.95;;
9264;SDS011;4669;49.594;10.958;2023-07-31T21:14:51;7.10;;;3.70;;
9264;SDS011;4669;49.594;10.958;2023-07-31T21:19:54;6.03;;;3.05;;
9264;SDS011;4669;49.594;10.958;2023-07-31T21:24:56;4.88;;;3.63;;
9264;SDS011;4669;49.594;10.958;2023-07-31T21:29:58;5.25;;;3.50;;
9264;SDS011;4669;49.594;10.958;2023-07-31T21:35:01;4.35;;;3.75;;
9264;SDS011;4669;49.594;10.958;2023-07-31T21:40:04;5.88;;;3.25;;
9264;SDS011;4669;49.594;10.958;2023-07-31T21:45:07;4.57;;;3.22;;
9264;SDS011;4669;49.594;10.958;2023-07-31T21:50:10;5.88;;;3.60;;
9264;SDS011;4669;49.594;10.958;2023-07-31T21:55:12;5.53;;;3.63;;
